Lady Debbie — J8NH — position and weather

sailwx.info

Track history (hours):
 
Tides and Currents Weather Stations Pressure Air Temp Water Temp Dewpoint Dewpoint Depression Visibility Wind Speed Wind Dir Waves Ship Positions

Lady Debbie

Last reported at 2018-Jan-22 13:43 UTC. Time now 2018-Feb-19 12:05 UTC.
Position N 14°35' W 061°04'.
Warning: this ship's position is 27 days out of date.

Length 32 m; draft 5.2 m.

Type: Tug. MMSI: 377901022.

Date/timePositionNaut miles runAvg speedWind from/ knotsBaromVisibWave heightAir tempDewpointWater temp
2018-Jan-22 13:43N 14°35' W 061°04'1 4.6
2018-Jan-22 13:28N 14°35' W 061°05'1 0.4
2018-Jan-22 10:15N 14°34' W 061°06'0 0.1
2018-Jan-22 09:54N 14°34' W 061°06'0 0.0
2018-Jan-22 08:09N 14°34' W 061°06'0 0.1
2018-Jan-22 08:00N 14°34' W 061°06'0 0.0
2018-Jan-22 04:45N 14°34' W 061°06'0 0.0
2018-Jan-22 04:30N 14°34' W 061°06'0 0.0
2018-Jan-22 04:00N 14°34' W 061°06'0 0.0
2018-Jan-22 03:30N 14°34' W 061°06'0 0.0
2018-Jan-22 03:00N 14°34' W 061°06'0 0.0
2018-Jan-22 02:30N 14°34' W 061°06'0 0.0
2018-Jan-22 02:00N 14°34' W 061°06'0 0.0
2018-Jan-22 01:27N 14°34' W 061°06'0 0.0
2018-Jan-22 01:00N 14°34' W 061°06'0 0.0
2018-Jan-22 00:24N 14°34' W 061°06'0 0.1
2018-Jan-22 00:00N 14°34' W 061°06'0 0.1
2018-Jan-21 23:30N 14°34' W 061°06'0 0.1
2018-Jan-21 23:00N 14°34' W 061°06'0 0.0
2018-Jan-21 22:30N 14°34' W 061°06'0 0.0
2018-Jan-21 21:27N 14°34' W 061°06'0 0.0
2018-Jan-21 21:00N 14°34' W 061°06'0 0.0
2018-Jan-21 20:30N 14°34' W 061°06'0 0.0
2018-Jan-21 19:55N 14°34' W 061°06'0 0.0
2018-Jan-21 19:28N 14°34' W 061°06'0 0.1
2018-Jan-21 19:01N 14°34' W 061°06'0 0.0
2018-Jan-21 18:31N 14°34' W 061°06'0 0.0
2018-Jan-21 17:59N 14°34' W 061°06'0 0.0
2018-Jan-21 17:28N 14°34' W 061°06'0 0.0
2018-Jan-21 17:01N 14°34' W 061°06'0 0.0
2018-Jan-21 16:30N 14°34' W 061°06'0 0.0
2018-Jan-21 16:01N 14°34' W 061°06'0 0.0
2018-Jan-21 15:30N 14°34' W 061°06'0 0.0
2018-Jan-21 15:00N 14°34' W 061°06'0 0.0
2018-Jan-21 14:30N 14°34' W 061°06'0 0.0
2018-Jan-21 13:59N 14°34' W 061°06'0 0.0
2018-Jan-21 12:41N 14°34' W 061°06'0 0.0
2018-Jan-21 12:30N 14°34' W 061°06'0 0.0
2018-Jan-21 11:57N 14°34' W 061°06'2 0.9
2018-Jan-21 09:47N 14°35' W 061°04'1 0.2
2018-Jan-21 04:32N 14°36' W 061°04'0 8.7
2018-Jan-21 04:29N 14°35' W 061°04'4 8.7
2018-Jan-21 03:59N 14°32' W 061°07'4 9.3
2018-Jan-21 03:31N 14°28' W 061°08'6 9.3
2018-Jan-21 02:52N 14°22' W 061°08'4 9.4
2018-Jan-21 02:28N 14°18' W 061°07'  
Track history (hours):
 
Tides and Currents Weather Stations Pressure Air Temp Water Temp Dewpoint Dewpoint Depression Visibility Wind Speed Wind Dir Waves Ship Positions

Lady Debbie

Last reported at 2018-Jan-22 13:43 UTC. Time now 2018-Feb-19 12:05 UTC.
Position N 14°35' W 061°04'.
Warning: this ship's position is 27 days out of date.

Length 32 m; draft 5.2 m.

Type: Tug. MMSI: 377901022.

Date/timePositionNaut miles runAvg speedWind from/ knotsBaromVisibWave heightAir tempDewpointWater temp
2018-Jan-22 13:43N 14°35' W 061°04'1 4.6
2018-Jan-22 13:28N 14°35' W 061°05'1 0.4
2018-Jan-22 10:15N 14°34' W 061°06'0 0.1
2018-Jan-22 09:54N 14°34' W 061°06'0 0.0
2018-Jan-22 08:09N 14°34' W 061°06'0 0.1
2018-Jan-22 08:00N 14°34' W 061°06'0 0.0
2018-Jan-22 04:45N 14°34' W 061°06'0 0.0
2018-Jan-22 04:30N 14°34' W 061°06'0 0.0
2018-Jan-22 04:00N 14°34' W 061°06'0 0.0
2018-Jan-22 03:30N 14°34' W 061°06'0 0.0
2018-Jan-22 03:00N 14°34' W 061°06'0 0.0
2018-Jan-22 02:30N 14°34' W 061°06'0 0.0
2018-Jan-22 02:00N 14°34' W 061°06'0 0.0
2018-Jan-22 01:27N 14°34' W 061°06'0 0.0
2018-Jan-22 01:00N 14°34' W 061°06'0 0.0
2018-Jan-22 00:24N 14°34' W 061°06'0 0.1
2018-Jan-22 00:00N 14°34' W 061°06'0 0.1
2018-Jan-21 23:30N 14°34' W 061°06'0 0.1
2018-Jan-21 23:00N 14°34' W 061°06'0 0.0
2018-Jan-21 22:30N 14°34' W 061°06'0 0.0
2018-Jan-21 21:27N 14°34' W 061°06'0 0.0
2018-Jan-21 21:00N 14°34' W 061°06'0 0.0
2018-Jan-21 20:30N 14°34' W 061°06'0 0.0
2018-Jan-21 19:55N 14°34' W 061°06'0 0.0
2018-Jan-21 19:28N 14°34' W 061°06'0 0.1
2018-Jan-21 19:01N 14°34' W 061°06'0 0.0
2018-Jan-21 18:31N 14°34' W 061°06'0 0.0
2018-Jan-21 17:59N 14°34' W 061°06'0 0.0
2018-Jan-21 17:28N 14°34' W 061°06'0 0.0
2018-Jan-21 17:01N 14°34' W 061°06'0 0.0
2018-Jan-21 16:30N 14°34' W 061°06'0 0.0
2018-Jan-21 16:01N 14°34' W 061°06'0 0.0
2018-Jan-21 15:30N 14°34' W 061°06'0 0.0
2018-Jan-21 15:00N 14°34' W 061°06'0 0.0
2018-Jan-21 14:30N 14°34' W 061°06'0 0.0
2018-Jan-21 13:59N 14°34' W 061°06'0 0.0
2018-Jan-21 12:41N 14°34' W 061°06'0 0.0
2018-Jan-21 12:30N 14°34' W 061°06'0 0.0
2018-Jan-21 11:57N 14°34' W 061°06'2 0.9
2018-Jan-21 09:47N 14°35' W 061°04'1 0.2
2018-Jan-21 04:32N 14°36' W 061°04'0 8.7
2018-Jan-21 04:29N 14°35' W 061°04'4 8.7
2018-Jan-21 03:59N 14°32' W 061°07'4 9.3
2018-Jan-21 03:31N 14°28' W 061°08'6 9.3
2018-Jan-21 02:52N 14°22' W 061°08'4 9.4
2018-Jan-21 02:28N 14°18' W 061°07'  

Dump ship's entire track history